Time;durP1;ratioP1;P1;durP2;ratioP2;P2;SDS_P1;SDS_P2;PMS_P1;PMS_P2;Temp;Humidity;BMP_temperature;BMP_pressure;BME280_temperature;BME280_humidity;BME280_pressure;Samples;Min_cycle;Max_cycle;Signal;HPM_P1;HPM_P2
2022/01/31 00:01:05;;;;;;;;;;;27.50;86.70;;;;;;5092819;28;19912;-55
2022/01/31 00:03:34;;;;;;;;;;;27.50;86.70;;;;;;5093035;28;19962;-62
2022/01/31 00:06:04;;;;;;;;;;;27.50;86.40;;;;;;5091100;28;19988;-59
2022/01/31 00:08:30;;;;;;;;;;;27.50;86.80;;;;;;5092321;28;19935;-56
2022/01/31 00:10:57;;;;;;;;;;;27.50;86.40;;;;;;5092426;28;20282;-60
2022/01/31 00:13:35;;;;;;;;;;;27.60;86.30;;;;;;5092690;28;19908;-58
2022/01/31 00:16:03;;;;;;;;;;;27.60;86.80;;;;;;5092106;28;19909;-62
2022/01/31 00:18:30;;;;;;;;;;;27.70;86.30;;;;;;5092072;28;19962;-61
2022/01/31 00:20:56;;;;;;;;;;;27.70;86.00;;;;;;5092562;28;19912;-54
2022/01/31 00:23:23;;;;;;;;;;;27.80;86.10;;;;;;5124876;28;19914;-61
2022/01/31 00:25:50;;;;;;;;;;;27.80;85.80;;;;;;5092583;28;19908;-55
2022/01/31 00:28:17;;;;;;;;;;;27.90;85.50;;;;;;5125266;28;19912;-57
2022/01/31 00:30:46;;;;;;;;;;;27.90;84.80;;;;;;5092297;28;19915;-63
2022/01/31 00:33:13;;;;;;;;;;;28.00;85.00;;;;;;5092798;28;19908;-61
2022/01/31 00:35:39;;;;;;;;;;;28.10;84.80;;;;;;5092490;28;19909;-61
2022/01/31 00:38:06;;;;;;;;;;;28.10;84.30;;;;;;5092155;28;19912;-62
2022/01/31 00:40:34;;;;;;;;;;;28.10;84.80;;;;;;5092390;28;19935;-60
2022/01/31 00:43:01;;;;;;;;;;;28.00;85.10;;;;;;5092480;28;20006;-61
2022/01/31 00:45:30;;;;;;;;;;;28.00;85.40;;;;;;5092115;28;20378;-59
2022/01/31 00:48:03;;;;;;;;;;;28.00;85.60;;;;;;5095000;28;19912;-61
2022/01/31 00:50:36;;;;;;;;;;;27.90;86.00;;;;;;5096477;28;19908;-63
2022/01/31 00:53:03;;;;;;;;;;;28.00;85.40;;;;;;5096473;28;19908;-60
2022/01/31 00:55:30;;;;;;;;;;;28.00;85.40;;;;;;5096914;28;19908;-59
2022/01/31 00:57:57;;;;;;;;;;;28.00;85.60;;;;;;5096396;28;19962;-62
2022/01/31 01:00:23;;;;;;;;;;;27.90;85.80;;;;;;5096704;28;19952;-62
2022/01/31 01:02:50;;;;;;;;;;;28.00;85.90;;;;;;5095838;28;19961;-61
2022/01/31 01:05:17;;;;;;;;;;;28.00;86.30;;;;;;5096451;28;19931;-56
2022/01/31 01:07:45;;;;;;;;;;;28.00;86.00;;;;;;5096398;28;20007;-61
2022/01/31 01:10:16;;;;;;;;;;;28.00;86.20;;;;;;5096329;28;19937;-59
2022/01/31 01:12:43;;;;;;;;;;;28.00;86.40;;;;;;5096566;28;19915;-55
2022/01/31 01:15:10;;;;;;;;;;;28.00;86.30;;;;;;5096172;28;19920;-59
2022/01/31 01:17:37;;;;;;;;;;;28.00;86.20;;;;;;5095832;28;20003;-56
2022/01/31 01:20:06;;;;;;;;;;;28.00;86.20;;;;;;5095928;28;19927;-53
2022/01/31 01:22:32;;;;;;;;;;;28.00;86.20;;;;;;5095010;28;20394;-59
2022/01/31 01:25:02;;;;;;;;;;;27.90;86.30;;;;;;5095812;28;20081;-64
2022/01/31 01:27:29;;;;;;;;;;;27.90;86.60;;;;;;5095636;28;19916;-56
2022/01/31 01:29:57;;;;;;;;;;;27.80;86.90;;;;;;5095195;28;20076;-61
2022/01/31 01:32:26;;;;;;;;;;;27.90;86.70;;;;;;5095119;28;19909;-57
2022/01/31 01:34:54;;;;;;;;;;;27.80;86.70;;;;;;5095314;28;19935;-59
2022/01/31 01:37:20;;;;;;;;;;;27.90;87.20;;;;;;5095029;28;19908;-61
2022/01/31 01:39:47;;;;;;;;;;;27.80;86.90;;;;;;5095090;28;19916;-62
2022/01/31 01:42:14;;;;;;;;;;;27.80;87.20;;;;;;5094324;28;19987;-59
2022/01/31 01:44:45;;;;;;;;;;;27.70;87.30;;;;;;5094892;28;19926;-54
2022/01/31 01:47:15;;;;;;;;;;;27.70;87.60;;;;;;5094825;28;19915;-59
2022/01/31 01:49:42;;;;;;;;;;;27.70;87.80;;;;;;5095090;28;19908;-61
2022/01/31 01:52:08;;;;;;;;;;;27.70;87.90;;;;;;5094699;28;19924;-57
2022/01/31 01:54:35;;;;;;;;;;;27.70;88.10;;;;;;5094853;28;19920;-58
2022/01/31 01:57:03;;;;;;;;;;;27.80;87.80;;;;;;5095156;28;19947;-61
2022/01/31 01:59:34;;;;;;;;;;;27.80;87.60;;;;;;5094052;28;20355;-58
2022/01/31 02:02:02;;;;;;;;;;;27.80;87.90;;;;;;5094953;28;20200;-53
2022/01/31 02:04:29;;;;;;;;;;;27.80;87.70;;;;;;5094517;28;19948;-58
2022/01/31 02:06:55;;;;;;;;;;;27.80;87.90;;;;;;5094576;28;19936;-58
2022/01/31 02:09:25;;;;;;;;;;;27.90;87.50;;;;;;5094608;28;19919;-57
2022/01/31 02:11:54;;;;;;;;;;;27.90;87.30;;;;;;5094450;28;20027;-60
2022/01/31 02:14:24;;;;;;;;;;;27.90;87.60;;;;;;5126180;27;19908;-58
2022/01/31 02:16:51;;;;;;;;;;;28.10;87.30;;;;;;5094727;28;19908;-63
2022/01/31 02:19:19;;;;;;;;;;;28.20;86.90;;;;;;5094415;28;19970;-59
2022/01/31 02:21:49;;;;;;;;;;;28.20;86.70;;;;;;5094402;28;20338;-61
2022/01/31 02:24:16;;;;;;;;;;;28.20;86.70;;;;;;5094553;28;19952;-62
2022/01/31 02:26:43;;;;;;;;;;;28.20;87.10;;;;;;5094923;28;19912;-58
2022/01/31 02:29:11;;;;;;;;;;;28.20;86.40;;;;;;5094533;28;19995;-59
2022/01/31 02:31:42;;;;;;;;;;;28.30;85.90;;;;;;5094492;28;20291;-61
2022/01/31 02:34:09;;;;;;;;;;;28.50;85.40;;;;;;5093901;28;19999;-61
2022/01/31 02:36:36;;;;;;;;;;;28.60;84.80;;;;;;5094456;28;20013;-56
2022/01/31 02:39:04;;;;;;;;;;;28.50;85.30;;;;;;5092788;28;20007;-61
2022/01/31 02:41:31;;;;;;;;;;;28.50;85.40;;;;;;5094294;28;20041;-62
2022/01/31 02:43:59;;;;;;;;;;;28.60;84.70;;;;;;5093701;28;20334;-58
2022/01/31 02:46:27;;;;;;;;;;;28.70;84.70;;;;;;5093980;28;19919;-59
2022/01/31 02:48:56;;;;;;;;;;;28.60;84.90;;;;;;5094228;28;19909;-60
2022/01/31 02:51:25;;;;;;;;;;;28.70;84.90;;;;;;5094140;28;20342;-60
2022/01/31 02:53:52;;;;;;;;;;;28.70;85.20;;;;;;5093814;28;19915;-55
2022/01/31 02:56:19;;;;;;;;;;;28.80;83.80;;;;;;5094252;28;20414;-62
2022/01/31 02:58:46;;;;;;;;;;;28.90;83.70;;;;;;5093986;28;19922;-61
2022/01/31 03:01:14;;;;;;;;;;;28.90;84.20;;;;;;5093969;28;19908;-50
2022/01/31 03:03:41;;;;;;;;;;;28.90;84.20;;;;;;5094093;28;19912;-49
2022/01/31 03:06:08;;;;;;;;;;;29.00;84.10;;;;;;5093213;28;19916;-56
2022/01/31 03:08:35;;;;;;;;;;;29.00;84.20;;;;;;5093170;28;20388;-59
2022/01/31 03:11:01;;;;;;;;;;;29.10;83.50;;;;;;5093187;28;19908;-63
2022/01/31 03:13:28;;;;;;;;;;;29.00;83.90;;;;;;5093586;28;19999;-59
2022/01/31 03:15:56;;;;;;;;;;;29.10;83.30;;;;;;5093363;28;20270;-64
2022/01/31 03:18:23;;;;;;;;;;;29.20;82.40;;;;;;5093382;28;19930;-61
2022/01/31 03:20:50;;;;;;;;;;;29.30;82.90;;;;;;5093316;28;19935;-62
2022/01/31 03:23:18;;;;;;;;;;;29.10;83.60;;;;;;5093511;28;20332;-50
2022/01/31 03:25:45;;;;;;;;;;;29.20;83.00;;;;;;5093541;28;19908;-57
2022/01/31 03:28:11;;;;;;;;;;;29.20;83.20;;;;;;5093181;28;19914;-62
2022/01/31 03:30:38;;;;;;;;;;;29.20;83.50;;;;;;5093233;28;19999;-59
2022/01/31 03:33:05;;;;;;;;;;;29.20;83.30;;;;;;5093149;28;20355;-56
2022/01/31 03:35:32;;;;;;;;;;;29.20;83.30;;;;;;5091844;28;19908;-63
2022/01/31 03:37:58;;;;;;;;;;;29.40;83.00;;;;;;5093053;28;20353;-56
2022/01/31 03:40:25;;;;;;;;;;;29.30;82.50;;;;;;5093628;28;20020;-50
2022/01/31 03:42:52;;;;;;;;;;;29.30;83.10;;;;;;5092764;28;19908;-57
2022/01/31 03:45:19;;;;;;;;;;;29.40;82.20;;;;;;5092808;28;19959;-54
2022/01/31 03:47:47;;;;;;;;;;;29.60;81.80;;;;;;5092760;28;20049;-55
2022/01/31 03:50:14;;;;;;;;;;;29.60;81.20;;;;;;5092792;28;19912;-52
2022/01/31 03:52:42;;;;;;;;;;;29.40;82.70;;;;;;5092918;28;19908;-54
2022/01/31 03:55:10;;;;;;;;;;;29.50;82.20;;;;;;5092013;28;19908;-61
2022/01/31 03:57:36;;;;;;;;;;;29.60;81.80;;;;;;5092884;28;19995;-57
2022/01/31 04:00:06;;;;;;;;;;;29.50;82.40;;;;;;5092618;28;20038;-52
2022/01/31 04:02:32;;;;;;;;;;;29.40;82.80;;;;;;5093280;28;19908;-59
2022/01/31 04:04:59;;;;;;;;;;;29.40;83.20;;;;;;5093092;28;20025;-61
2022/01/31 04:07:26;;;;;;;;;;;29.30;83.30;;;;;;5092535;28;19912;-52
2022/01/31 04:09:53;;;;;;;;;;;29.40;83.10;;;;;;5092581;28;19920;-62
2022/01/31 04:12:20;;;;;;;;;;;29.40;83.40;;;;;;5092888;28;19908;-60
2022/01/31 04:14:47;;;;;;;;;;;29.50;82.70;;;;;;5092567;28;20003;-59
2022/01/31 04:17:14;;;;;;;;;;;29.40;83.20;;;;;;5092388;28;19908;-63
2022/01/31 04:19:41;;;;;;;;;;;29.50;82.80;;;;;;5092657;28;19922;-61
2022/01/31 04:22:11;;;;;;;;;;;29.50;82.40;;;;;;5091471;28;19915;-58
2022/01/31 04:24:40;;;;;;;;;;;29.60;82.30;;;;;;5092308;28;19912;-59
2022/01/31 04:27:08;;;;;;;;;;;29.60;82.00;;;;;;5092348;28;19944;-58
2022/01/31 04:29:38;;;;;;;;;;;29.60;82.70;;;;;;5092896;28;20247;-55
2022/01/31 04:32:05;;;;;;;;;;;29.50;82.90;;;;;;5092539;28;19917;-59
2022/01/31 04:34:32;;;;;;;;;;;29.50;82.80;;;;;;5092662;28;19917;-56
2022/01/31 04:36:59;;;;;;;;;;;29.50;83.00;;;;;;5092396;28;19984;-58
2022/01/31 04:39:28;;;;;;;;;;;29.50;83.10;;;;;;5091938;28;20078;-55
2022/01/31 04:41:55;;;;;;;;;;;29.50;83.00;;;;;;5092045;28;19908;-59
2022/01/31 04:44:22;;;;;;;;;;;29.50;82.90;;;;;;5092007;28;19908;-61
2022/01/31 04:46:52;;;;;;;;;;;29.60;82.50;;;;;;5092479;28;19909;-58
2022/01/31 04:49:19;;;;;;;;;;;29.50;82.70;;;;;;5092630;28;19908;-61
2022/01/31 04:51:46;;;;;;;;;;;29.60;83.00;;;;;;5092534;28;19915;-61
2022/01/31 04:54:13;;;;;;;;;;;29.50;83.10;;;;;;5092439;28;19918;-61
2022/01/31 04:56:41;;;;;;;;;;;29.40;83.60;;;;;;5092414;28;19978;-61
2022/01/31 04:59:09;;;;;;;;;;;29.50;82.90;;;;;;5092532;28;20362;-56
2022/01/31 05:01:38;;;;;;;;;;;29.60;82.80;;;;;;5092107;28;19911;-60
2022/01/31 05:04:05;;;;;;;;;;;29.70;82.70;;;;;;5091043;28;19999;-57
2022/01/31 05:06:36;;;;;;;;;;;29.60;82.70;;;;;;5091706;28;19915;-56
2022/01/31 05:09:03;;;;;;;;;;;29.60;82.50;;;;;;5089441;28;20015;-59
2022/01/31 05:11:30;;;;;;;;;;;29.60;83.10;;;;;;5092096;28;19912;-56
2022/01/31 05:13:57;;;;;;;;;;;29.50;82.50;;;;;;5091955;28;19912;-50
2022/01/31 05:16:23;;;;;;;;;;;29.40;83.70;;;;;;5092324;28;19909;-59
2022/01/31 05:18:50;;;;;;;;;;;29.50;83.60;;;;;;5091461;28;19967;-60
2022/01/31 05:21:17;;;;;;;;;;;29.50;83.50;;;;;;5091617;28;19916;-59
2022/01/31 05:23:44;;;;;;;;;;;29.40;83.80;;;;;;5091778;28;19912;-54
2022/01/31 05:26:11;;;;;;;;;;;29.40;84.00;;;;;;5091238;28;19912;-50
2022/01/31 05:28:38;;;;;;;;;;;29.40;83.90;;;;;;5091724;28;19908;-62
2022/01/31 05:31:05;;;;;;;;;;;29.50;82.80;;;;;;5091734;28;19915;-60
2022/01/31 05:33:32;;;;;;;;;;;29.50;82.40;;;;;;5091391;28;19909;-57
2022/01/31 05:35:59;;;;;;;;;;;29.60;82.80;;;;;;5094589;28;19908;-62
2022/01/31 05:38:26;;;;;;;;;;;29.60;83.00;;;;;;5095269;28;19912;-61
2022/01/31 05:40:52;;;;;;;;;;;29.40;83.70;;;;;;5095246;28;19935;-62
2022/01/31 05:43:19;;;;;;;;;;;29.40;84.10;;;;;;5095390;28;19939;-55
2022/01/31 05:45:46;;;;;;;;;;;29.40;84.40;;;;;;5095007;28;19912;-58
2022/01/31 05:48:13;;;;;;;;;;;29.30;84.40;;;;;;5094665;28;20423;-58
2022/01/31 05:50:40;;;;;;;;;;;29.40;84.00;;;;;;5094967;28;19920;-61
2022/01/31 05:53:07;;;;;;;;;;;29.40;83.90;;;;;;5094899;28;20274;-57
2022/01/31 05:55:33;;;;;;;;;;;29.40;84.50;;;;;;5095180;28;19908;-62
2022/01/31 05:58:00;;;;;;;;;;;29.20;84.70;;;;;;5094836;28;19908;-61
2022/01/31 06:00:27;;;;;;;;;;;29.30;84.70;;;;;;5094784;28;19966;-60
2022/01/31 06:02:58;;;;;;;;;;;29.20;84.90;;;;;;5094951;28;19908;-59
2022/01/31 06:05:25;;;;;;;;;;;29.20;84.80;;;;;;5094641;28;19952;-57
2022/01/31 06:07:52;;;;;;;;;;;29.20;84.90;;;;;;5094211;28;20018;-60
2022/01/31 06:10:22;;;;;;;;;;;29.20;85.10;;;;;;5094658;28;19916;-55
2022/01/31 06:12:50;;;;;;;;;;;29.20;85.10;;;;;;5093305;28;20300;-62
2022/01/31 06:15:18;;;;;;;;;;;29.10;85.20;;;;;;5094324;28;19947;-61
2022/01/31 06:17:44;;;;;;;;;;;29.10;85.60;;;;;;5092751;28;19908;-59
2022/01/31 06:20:11;;;;;;;;;;;29.10;85.60;;;;;;5093603;28;20488;-52
2022/01/31 06:22:45;;;;;;;;;;;29.00;85.90;;;;;;5094130;28;20392;-58
2022/01/31 06:25:12;;;;;;;;;;;29.00;86.20;;;;;;5092996;28;19997;-57
2022/01/31 06:27:39;;;;;;;;;;;28.90;86.50;;;;;;5094116;28;19908;-60
2022/01/31 06:30:06;;;;;;;;;;;28.90;86.50;;;;;;5093554;28;19959;-59
2022/01/31 06:32:33;;;;;;;;;;;28.80;86.80;;;;;;5094307;28;19908;-62
2022/01/31 06:35:00;;;;;;;;;;;28.80;86.80;;;;;;5093909;28;20336;-61
2022/01/31 06:37:27;;;;;;;;;;;28.70;87.10;;;;;;5093540;28;20327;-60
2022/01/31 06:39:53;;;;;;;;;;;28.60;87.30;;;;;;5093402;28;19960;-60
2022/01/31 06:42:20;;;;;;;;;;;28.60;87.50;;;;;;5094079;28;20362;-59
2022/01/31 06:44:47;;;;;;;;;;;28.60;87.20;;;;;;5093646;28;19931;-62
2022/01/31 06:47:13;;;;;;;;;;;28.60;87.80;;;;;;5092520;28;19931;-60
2022/01/31 06:49:40;;;;;;;;;;;28.50;87.40;;;;;;5093921;28;20386;-60
2022/01/31 06:52:07;;;;;;;;;;;28.60;87.30;;;;;;5092997;28;20316;-58
2022/01/31 06:54:34;;;;;;;;;;;28.50;87.70;;;;;;5093726;28;19908;-59
2022/01/31 06:57:01;;;;;;;;;;;28.50;87.90;;;;;;5093423;28;19960;-57
2022/01/31 06:59:28;;;;;;;;;;;28.50;88.20;;;;;;5093136;28;19969;-56
2022/01/31 07:01:54;;;;;;;;;;;28.50;88.10;;;;;;5092367;28;19908;-57
2022/01/31 07:04:21;;;;;;;;;;;28.60;88.00;;;;;;5092928;28;20039;-57
2022/01/31 07:06:48;;;;;;;;;;;28.60;88.10;;;;;;5092863;28;20354;-57
2022/01/31 07:09:15;;;;;;;;;;;28.50;87.80;;;;;;5093307;28;19973;-60
2022/01/31 07:11:43;;;;;;;;;;;28.40;88.30;;;;;;5093649;28;19908;-62
2022/01/31 07:14:31;;;;;;;;;;;28.40;88.70;;;;;;5093221;28;19908;-61
2022/01/31 07:16:56;;;;;;;;;;;28.30;88.90;;;;;;5093097;28;20280;-55
2022/01/31 07:19:27;;;;;;;;;;;28.30;89.00;;;;;;5092925;28;20019;-59
2022/01/31 07:21:53;;;;;;;;;;;28.30;89.10;;;;;;5093258;28;19912;-57
2022/01/31 07:26:59;;;;;;;;;;;28.20;89.30;;;;;;5092922;28;19962;-60
2022/01/31 07:29:26;;;;;;;;;;;28.30;89.50;;;;;;5092945;28;19986;-58
2022/01/31 07:31:53;;;;;;;;;;;28.30;89.60;;;;;;5092689;28;20006;-59
2022/01/31 07:34:20;;;;;;;;;;;28.20;89.60;;;;;;5092595;28;19912;-53
2022/01/31 07:36:47;;;;;;;;;;;28.20;89.70;;;;;;5092403;28;19912;-59
2022/01/31 07:39:14;;;;;;;;;;;28.20;89.20;;;;;;5092187;28;19916;-52
2022/01/31 07:41:41;;;;;;;;;;;28.20;89.30;;;;;;5092440;28;19927;-53
2022/01/31 07:44:08;;;;;;;;;;;28.20;89.30;;;;;;5092889;28;19909;-54
2022/01/31 07:46:35;;;;;;;;;;;28.10;90.00;;;;;;5092725;28;20282;-56
2022/01/31 07:49:02;;;;;;;;;;;28.20;90.10;;;;;;5093122;28;20019;-55
2022/01/31 07:51:29;;;;;;;;;;;28.20;90.20;;;;;;5092464;28;19919;-56
2022/01/31 07:53:56;;;;;;;;;;;28.20;90.20;;;;;;5092658;28;20266;-56
2022/01/31 07:56:22;;;;;;;;;;;28.20;90.20;;;;;;5091721;28;20362;-54
2022/01/31 07:58:49;;;;;;;;;;;28.20;90.30;;;;;;5092293;28;20098;-58
2022/01/31 08:01:16;;;;;;;;;;;28.20;90.60;;;;;;5124707;27;19912;-55
2022/01/31 08:03:45;;;;;;;;;;;28.30;90.70;;;;;;5092221;28;19924;-57
2022/01/31 08:06:12;;;;;;;;;;;28.10;90.70;;;;;;5092014;28;19912;-60
2022/01/31 08:08:38;;;;;;;;;;;28.10;90.90;;;;;;5092537;28;19927;-57
2022/01/31 08:11:05;;;;;;;;;;;28.10;91.20;;;;;;5092784;28;19916;-54
2022/01/31 08:13:33;;;;;;;;;;;28.10;91.60;;;;;;5092360;28;19969;-59
2022/01/31 08:16:09;;;;;;;;;;;28.10;91.60;;;;;;5091989;28;19912;-52
2022/01/31 08:18:38;;;;;;;;;;;27.90;91.90;;;;;;5092424;28;19912;-51
2022/01/31 08:21:05;;;;;;;;;;;27.90;91.60;;;;;;5092151;28;19919;-58
2022/01/31 08:23:32;;;;;;;;;;;27.80;92.00;;;;;;5092278;28;20205;-58
2022/01/31 08:26:01;;;;;;;;;;;27.70;91.80;;;;;;5091825;28;19999;-56
2022/01/31 08:28:41;;;;;;;;;;;27.70;92.60;;;;;;5092126;28;19908;-56
2022/01/31 08:33:48;;;;;;;;;;;27.80;92.20;;;;;;5092466;28;20216;-59
2022/01/31 08:36:16;;;;;;;;;;;27.80;93.00;;;;;;5091493;28;19954;-59
2022/01/31 08:38:44;;;;;;;;;;;27.80;93.10;;;;;;5091907;28;20366;-56
2022/01/31 08:41:11;;;;;;;;;;;27.80;93.00;;;;;;5092041;28;19915;-56
2022/01/31 08:43:38;;;;;;;;;;;27.90;92.90;;;;;;5091872;28;19991;-59
2022/01/31 08:46:05;;;;;;;;;;;27.90;92.70;;;;;;5091748;28;19908;-58
2022/01/31 08:48:33;;;;;;;;;;;27.80;92.90;;;;;;5091566;28;20007;-59
2022/01/31 08:51:00;;;;;;;;;;;27.80;93.00;;;;;;5091719;28;20314;-57
2022/01/31 08:53:27;;;;;;;;;;;27.90;93.30;;;;;;5091770;28;19919;-58
2022/01/31 08:55:55;;;;;;;;;;;27.80;92.30;;;;;;5091772;28;19916;-59
2022/01/31 08:58:22;;;;;;;;;;;27.70;92.60;;;;;;5092300;28;19908;-55
2022/01/31 09:00:57;;;;;;;;;;;27.80;93.40;;;;;;5091774;28;20326;-60
2022/01/31 09:06:11;;;;;;;;;;;27.70;92.90;;;;;;5092159;28;19930;-55
2022/01/31 09:08:39;;;;;;;;;;;27.70;93.30;;;;;;5094340;28;20009;-59
2022/01/31 09:11:06;;;;;;;;;;;27.70;93.50;;;;;;5096044;28;19908;-62
2022/01/31 09:13:34;;;;;;;;;;;27.70;93.30;;;;;;5095937;28;19908;-59
2022/01/31 09:16:01;;;;;;;;;;;27.70;93.40;;;;;;5095580;28;19954;-55
2022/01/31 09:18:28;;;;;;;;;;;27.70;93.40;;;;;;5096080;28;19959;-58
2022/01/31 09:20:57;;;;;;;;;;;27.70;93.30;;;;;;5095953;28;20027;-59
2022/01/31 09:23:24;;;;;;;;;;;27.60;93.20;;;;;;5094359;28;20226;-60
2022/01/31 09:25:51;;;;;;;;;;;27.70;93.20;;;;;;5095828;28;20417;-59
2022/01/31 09:28:17;;;;;;;;;;;27.60;93.10;;;;;;5095884;28;19956;-59
2022/01/31 09:30:45;;;;;;;;;;;27.60;93.00;;;;;;5095707;28;19953;-58
2022/01/31 09:35:57;;;;;;;;;;;27.50;93.00;;;;;;5095705;28;20337;-62
2022/01/31 09:38:25;;;;;;;;;;;27.50;92.80;;;;;;5095805;28;20316;-58
2022/01/31 09:40:53;;;;;;;;;;;27.50;92.90;;;;;;5095486;28;19930;-59
2022/01/31 09:46:00;;;;;;;;;;;27.40;92.80;;;;;;5095641;28;19912;-56
2022/01/31 09:48:38;;;;;;;;;;;27.40;92.80;;;;;;5095279;28;19999;-59
2022/01/31 09:51:09;;;;;;;;;;;27.40;92.80;;;;;;5095496;28;19940;-61
2022/01/31 09:53:38;;;;;;;;;;;27.40;92.80;;;;;;5094901;28;19919;-53
2022/01/31 09:56:08;;;;;;;;;;;27.30;92.80;;;;;;5094900;28;19912;-51
2022/01/31 09:58:35;;;;;;;;;;;27.30;92.80;;;;;;5095335;28;19908;-56
2022/01/31 10:01:12;;;;;;;;;;;27.30;92.80;;;;;;5095172;28;20052;-56
2022/01/31 10:03:48;;;;;;;;;;;27.30;92.80;;;;;;5095293;28;19953;-57
2022/01/31 10:06:25;;;;;;;;;;;27.30;92.90;;;;;;5094795;28;20313;-59
2022/01/31 10:09:08;;;;;;;;;;;27.30;92.90;;;;;;5095182;28;19927;-55
2022/01/31 10:11:48;;;;;;;;;;;27.20;92.80;;;;;;5095271;28;19909;-59
2022/01/31 10:17:19;;;;;;;;;;;27.20;92.90;;;;;;5095165;28;19961;-59
2022/01/31 10:19:46;;;;;;;;;;;27.10;92.80;;;;;;5093861;28;19943;-57
2022/01/31 10:22:14;;;;;;;;;;;27.10;92.90;;;;;;5095007;28;19930;-56
2022/01/31 10:24:43;;;;;;;;;;;27.10;92.90;;;;;;5095113;28;19912;-61
2022/01/31 10:27:14;;;;;;;;;;;27.10;92.90;;;;;;5094655;28;19912;-56
2022/01/31 10:29:42;;;;;;;;;;;27.10;92.90;;;;;;5093698;28;19957;-56
2022/01/31 10:32:10;;;;;;;;;;;27.00;93.00;;;;;;5094528;28;19912;-59
2022/01/31 10:34:38;;;;;;;;;;;27.00;93.00;;;;;;5093271;28;19912;-60
2022/01/31 10:37:07;;;;;;;;;;;27.00;93.00;;;;;;5093479;28;19940;-54
2022/01/31 10:46:04;;;;;;;;;;;26.90;93.00;;;;;;5094942;28;19916;-60
2022/01/31 10:54:00;;;;;;;;;;;26.90;93.00;;;;;;5094160;28;20030;-59
2022/01/31 10:56:35;;;;;;;;;;;26.90;93.10;;;;;;5093634;28;19915;-54
2022/01/31 10:59:04;;;;;;;;;;;26.90;93.10;;;;;;5094065;28;20227;-59
2022/01/31 11:01:31;;;;;;;;;;;26.90;93.10;;;;;;5094177;28;19951;-61
2022/01/31 11:04:03;;;;;;;;;;;26.90;93.20;;;;;;5094016;28;20344;-59
2022/01/31 11:06:30;;;;;;;;;;;26.90;93.20;;;;;;5093920;28;19915;-61
2022/01/31 11:09:04;;;;;;;;;;;26.90;93.10;;;;;;5093866;28;20400;-58
2022/01/31 11:11:32;;;;;;;;;;;26.80;93.10;;;;;;5094153;28;20419;-58
2022/01/31 11:13:59;;;;;;;;;;;26.90;93.10;;;;;;5093908;28;19909;-60
2022/01/31 11:16:27;;;;;;;;;;;26.90;93.10;;;;;;5093881;28;19912;-59
2022/01/31 11:19:12;;;;;;;;;;;26.90;93.10;;;;;;5093651;28;20263;-61
2022/01/31 11:21:46;;;;;;;;;;;26.80;93.10;;;;;;5093714;28;19916;-57
2022/01/31 11:24:26;;;;;;;;;;;26.90;93.10;;;;;;5093253;28;19915;-57
2022/01/31 11:26:58;;;;;;;;;;;26.90;93.00;;;;;;5093647;28;19908;-60
2022/01/31 11:32:11;;;;;;;;;;;26.80;92.90;;;;;;5093907;28;19922;-56
2022/01/31 11:34:39;;;;;;;;;;;26.90;92.90;;;;;;5092135;28;20286;-60
2022/01/31 11:37:10;;;;;;;;;;;26.80;92.80;;;;;;5093764;28;19912;-59
2022/01/31 11:39:40;;;;;;;;;;;26.80;92.80;;;;;;5093710;28;19916;-60
2022/01/31 11:42:25;;;;;;;;;;;26.80;92.80;;;;;;5093283;28;19953;-60
2022/01/31 11:45:10;;;;;;;;;;;26.80;92.80;;;;;;5093338;28;20014;-58
2022/01/31 11:47:40;;;;;;;;;;;26.80;92.90;;;;;;5092552;28;19915;-61
2022/01/31 11:50:25;;;;;;;;;;;26.80;92.90;;;;;;5093414;28;20286;-60
2022/01/31 11:52:52;;;;;;;;;;;26.80;92.90;;;;;;5093665;28;20015;-58
2022/01/31 11:55:20;;;;;;;;;;;26.80;92.90;;;;;;5093736;28;19953;-60
2022/01/31 11:57:48;;;;;;;;;;;26.70;92.90;;;;;;5093693;28;19920;-60
2022/01/31 12:00:17;;;;;;;;;;;26.80;92.90;;;;;;5093247;28;19916;-60
2022/01/31 12:02:51;;;;;;;;;;;26.70;93.00;;;;;;5092986;28;20189;-61
2022/01/31 12:05:20;;;;;;;;;;;26.80;93.00;;;;;;5093633;28;19908;-61
2022/01/31 12:07:49;;;;;;;;;;;26.80;93.00;;;;;;5093337;28;19908;-59
2022/01/31 12:10:27;;;;;;;;;;;26.70;93.00;;;;;;5093258;28;19930;-56
2022/01/31 12:13:01;;;;;;;;;;;26.70;93.00;;;;;;5093993;28;19908;-61
2022/01/31 12:23:53;;;;;;;;;;;26.70;93.10;;;;;;5093238;28;20219;-60
2022/01/31 12:26:35;;;;;;;;;;;26.70;93.10;;;;;;5093199;28;19908;-58
2022/01/31 12:31:56;;;;;;;;;;;26.60;93.20;;;;;;5092637;28;19953;-59
2022/01/31 12:34:23;;;;;;;;;;;26.60;93.10;;;;;;5092759;28;19915;-57
2022/01/31 12:36:53;;;;;;;;;;;26.60;93.20;;;;;;5092640;28;19954;-61
2022/01/31 12:39:36;;;;;;;;;;;26.60;93.20;;;;;;5092624;28;19913;-59
2022/01/31 12:42:32;;;;;;;;;;;26.60;93.20;;;;;;5092776;28;20005;-60
2022/01/31 12:44:59;;;;;;;;;;;26.60;93.20;;;;;;5096838;28;19916;-61
2022/01/31 12:47:25;;;;;;;;;;;26.60;93.20;;;;;;5096821;28;19931;-62
2022/01/31 12:50:10;;;;;;;;;;;26.60;93.20;;;;;;5096360;28;19908;-59
2022/01/31 12:52:37;;;;;;;;;;;26.60;93.20;;;;;;5096770;28;20342;-59
2022/01/31 12:55:10;;;;;;;;;;;26.50;93.10;;;;;;5096594;28;19916;-59
2022/01/31 12:57:48;;;;;;;;;;;26.60;93.20;;;;;;5096505;28;19912;-59
2022/01/31 13:00:15;;;;;;;;;;;26.50;93.10;;;;;;5096193;28;19916;-59
2022/01/31 13:02:53;;;;;;;;;;;26.50;93.20;;;;;;5096654;28;19947;-58
2022/01/31 13:05:32;;;;;;;;;;;26.50;93.20;;;;;;5096502;28;19908;-59
2022/01/31 13:08:17;;;;;;;;;;;26.50;93.20;;;;;;5096039;28;19973;-56
2022/01/31 13:10:44;;;;;;;;;;;26.50;93.30;;;;;;5096426;28;19919;-58
2022/01/31 13:13:29;;;;;;;;;;;26.50;93.20;;;;;;5096366;28;19919;-61
2022/01/31 13:16:03;;;;;;;;;;;26.50;93.20;;;;;;5096162;28;19908;-60
2022/01/31 13:18:32;;;;;;;;;;;26.50;93.20;;;;;;5096535;28;19993;-58
2022/01/31 13:21:00;;;;;;;;;;;26.50;93.20;;;;;;5096522;28;19916;-58
2022/01/31 13:23:26;;;;;;;;;;;26.50;93.30;;;;;;5096245;28;19912;-58
2022/01/31 13:25:57;;;;;;;;;;;26.40;93.20;;;;;;5095821;28;19915;-57
2022/01/31 13:28:24;;;;;;;;;;;26.40;93.20;;;;;;5096642;28;20415;-58
2022/01/31 13:30:51;;;;;;;;;;;26.50;93.20;;;;;;5096476;28;19909;-59
2022/01/31 13:33:41;;;;;;;;;;;26.40;93.20;;;;;;5096305;28;19998;-54
2022/01/31 13:36:09;;;;;;;;;;;26.40;93.20;;;;;;5095967;28;19914;-57
2022/01/31 13:38:36;;;;;;;;;;;26.40;93.10;;;;;;5129026;27;19951;-58
2022/01/31 13:41:03;;;;;;;;;;;26.40;93.20;;;;;;5096437;28;19922;-59
2022/01/31 13:43:33;;;;;;;;;;;26.40;93.10;;;;;;5096307;28;19908;-55
2022/01/31 13:46:10;;;;;;;;;;;26.40;93.20;;;;;;5095685;28;19954;-56
2022/01/31 13:51:34;;;;;;;;;;;26.30;93.10;;;;;;5095650;28;19955;-57
2022/01/31 13:54:03;;;;;;;;;;;26.30;93.20;;;;;;5094965;28;19956;-59
2022/01/31 13:56:30;;;;;;;;;;;26.30;93.20;;;;;;5095802;28;20342;-57
2022/01/31 13:58:58;;;;;;;;;;;26.30;93.20;;;;;;5095473;28;19959;-60
2022/01/31 14:01:25;;;;;;;;;;;26.30;93.20;;;;;;5095437;28;19958;-60
2022/01/31 14:03:53;;;;;;;;;;;26.30;93.20;;;;;;5095352;28;19985;-59
2022/01/31 14:06:21;;;;;;;;;;;26.30;93.20;;;;;;5095427;28;19969;-57
2022/01/31 14:08:49;;;;;;;;;;;26.30;93.10;;;;;;5095101;28;20011;-54
2022/01/31 14:11:21;;;;;;;;;;;26.30;93.20;;;;;;5095826;28;19908;-58
2022/01/31 14:13:51;;;;;;;;;;;26.30;93.20;;;;;;5095528;28;20345;-60
2022/01/31 14:16:19;;;;;;;;;;;26.30;93.20;;;;;;5095782;28;20257;-60
2022/01/31 14:18:47;;;;;;;;;;;26.30;93.20;;;;;;5095229;28;19927;-61
2022/01/31 14:21:14;;;;;;;;;;;26.20;93.20;;;;;;5095404;28;19916;-59
2022/01/31 14:23:42;;;;;;;;;;;26.20;93.20;;;;;;5095418;28;19912;-58
2022/01/31 14:26:14;;;;;;;;;;;26.30;93.20;;;;;;5095099;28;19908;-57
2022/01/31 14:28:45;;;;;;;;;;;26.30;93.30;;;;;;5094949;28;20330;-59
2022/01/31 14:31:14;;;;;;;;;;;26.20;93.30;;;;;;5095300;28;19915;-58
2022/01/31 14:33:45;;;;;;;;;;;26.20;93.30;;;;;;5095193;28;19960;-61
2022/01/31 14:36:13;;;;;;;;;;;26.20;93.20;;;;;;5094552;28;19934;-60
2022/01/31 14:38:57;;;;;;;;;;;26.20;93.30;;;;;;5094843;28;20354;-58
2022/01/31 14:41:53;;;;;;;;;;;26.20;93.20;;;;;;5094928;28;20222;-62
2022/01/31 14:49:38;;;;;;;;;;;26.10;93.30;;;;;;5094233;28;20274;-60
2022/01/31 14:52:06;;;;;;;;;;;26.10;93.30;;;;;;5094183;28;20299;-61
2022/01/31 14:54:33;;;;;;;;;;;26.20;93.30;;;;;;5094251;28;19912;-53
2022/01/31 14:57:00;;;;;;;;;;;26.10;93.30;;;;;;5094372;28;19908;-57
2022/01/31 14:59:27;;;;;;;;;;;26.10;93.30;;;;;;5094223;28;19962;-57
2022/01/31 15:01:54;;;;;;;;;;;26.10;93.60;;;;;;5093923;28;19912;-58
2022/01/31 15:04:22;;;;;;;;;;;26.10;93.40;;;;;;5094140;28;19908;-61
2022/01/31 15:06:49;;;;;;;;;;;26.10;93.30;;;;;;5093979;28;19934;-57
2022/01/31 15:09:16;;;;;;;;;;;26.10;93.30;;;;;;5094045;28;20038;-56
2022/01/31 15:11:44;;;;;;;;;;;26.10;93.40;;;;;;5093841;28;19977;-58
2022/01/31 15:14:11;;;;;;;;;;;26.10;93.40;;;;;;5093514;28;19912;-59
2022/01/31 15:16:41;;;;;;;;;;;26.00;93.30;;;;;;5093367;28;19908;-58